WHSE22 YBTL-YBTL
Flight info
| Callsign | WHSE22 |
|---|---|
| Flight time | 0h 39m |
| Altitude | 4000 |
| Route | YBTL N0520A040 YPUK YCOT SALOX SATCO VARBI YBTL |
| Aircraft | H47/M-SDFGRY/LB1 |
Departure
| Time | 2026-05-06 00:48 |
|---|---|
| Airport | Townsville Airport / RAAF Base Townsville (YBTL) |
Arrival
| Time | 2026-05-06 01:27 |
|---|---|
| Airport | Townsville Airport / RAAF Base Townsville (YBTL) |
| Time | Latitude | Longitude | Altitude | Speed | Heading |
|---|---|---|---|---|---|
| 2026-05-06 00:40 | -19.25809 | 146.75962 | 15 ft | 0 kts | 98° |
| 2026-05-06 00:44 | -19.25811 | 146.75975 | 15 ft | 4 kts | 101° |
| 2026-05-06 00:45 | -19.25796 | 146.76001 | 15 ft | 6 kts | 4° |
| 2026-05-06 00:45 | -19.25749 | 146.76005 | 15 ft | 8 kts | 5° |
| 2026-05-06 00:45 | -19.25693 | 146.75988 | 15 ft | 10 kts | 308° |
| 2026-05-06 00:45 | -19.25679 | 146.75915 | 15 ft | 11 kts | 276° |
| 2026-05-06 00:46 | -19.25670 | 146.75828 | 15 ft | 13 kts | 277° |
| 2026-05-06 00:46 | -19.25661 | 146.75723 | 15 ft | 16 kts | 274° |
| 2026-05-06 00:46 | -19.25650 | 146.75614 | 15 ft | 12 kts | 278° |
| 2026-05-06 00:46 | -19.25612 | 146.75572 | 16 ft | 8 kts | 349° |
| 2026-05-06 00:47 | -19.25570 | 146.75588 | 16 ft | 7 kts | 67° |
| 2026-05-06 00:47 | -19.25565 | 146.75603 | 19 ft | 3 kts | 77° |
| 2026-05-06 00:47 | -19.25547 | 146.75681 | 36 ft | 19 kts | 84° |
| 2026-05-06 00:47 | -19.25605 | 146.75871 | 177 ft | 45 kts | 114° |
| 2026-05-06 00:48 | -19.26060 | 146.76017 | 457 ft | 95 kts | 172° |
| 2026-05-06 00:48 | -19.26755 | 146.75622 | 634 ft | 130 kts | 215° |
| 2026-05-06 00:48 | -19.27354 | 146.74859 | 691 ft | 137 kts | 233° |
| 2026-05-06 00:48 | -19.27801 | 146.73986 | 900 ft | 131 kts | 243° |
| 2026-05-06 00:49 | -19.28137 | 146.73139 | 1226 ft | 123 kts | 248° |
| 2026-05-06 00:49 | -19.28423 | 146.72236 | 1420 ft | 140 kts | 251° |
| 2026-05-06 00:49 | -19.28749 | 146.71209 | 1239 ft | 150 kts | 249° |
| 2026-05-06 00:49 | -19.29099 | 146.70185 | 1027 ft | 143 kts | 247° |
| 2026-05-06 00:50 | -19.29507 | 146.69310 | 1236 ft | 127 kts | 240° |
| 2026-05-06 00:50 | -19.29976 | 146.68452 | 1269 ft | 142 kts | 241° |
| 2026-05-06 00:50 | -19.30429 | 146.67497 | 1113 ft | 146 kts | 243° |
| 2026-05-06 00:50 | -19.30832 | 146.66547 | 1115 ft | 136 kts | 244° |
| 2026-05-06 00:51 | -19.31206 | 146.65639 | 1174 ft | 133 kts | 245° |
| 2026-05-06 00:51 | -19.31635 | 146.64788 | 1205 ft | 133 kts | 238° |
| 2026-05-06 00:51 | -19.32130 | 146.63917 | 1242 ft | 141 kts | 238° |
| 2026-05-06 00:51 | -19.32632 | 146.63015 | 1192 ft | 142 kts | 237° |
| 2026-05-06 00:52 | -19.33125 | 146.62166 | 1266 ft | 128 kts | 237° |
| 2026-05-06 00:52 | -19.33585 | 146.61380 | 1411 ft | 127 kts | 237° |
| 2026-05-06 00:52 | -19.33890 | 146.60839 | 1500 ft | 129 kts | 238° |
| 2026-05-06 00:52 | -19.34525 | 146.59716 | 1540 ft | 139 kts | 237° |
| 2026-05-06 00:53 | -19.35089 | 146.58859 | 1341 ft | 147 kts | 231° |
| 2026-05-06 00:53 | -19.35526 | 146.58287 | 1163 ft | 153 kts | 232° |
| 2026-05-06 00:53 | -19.36202 | 146.57488 | 1692 ft | 128 kts | 223° |
| 2026-05-06 00:53 | -19.36815 | 146.57089 | 2864 ft | 96 kts | 207° |
| 2026-05-06 00:54 | -19.37407 | 146.56499 | 3456 ft | 134 kts | 226° |
| 2026-05-06 00:54 | -19.38028 | 146.55646 | 3664 ft | 158 kts | 231° |
| 2026-05-06 00:54 | -19.38821 | 146.54703 | 3403 ft | 178 kts | 225° |
| 2026-05-06 00:54 | -19.39575 | 146.53669 | 3252 ft | 179 kts | 234° |
| 2026-05-06 00:55 | -19.40187 | 146.52462 | 2806 ft | 193 kts | 244° |
| 2026-05-06 00:55 | -19.40477 | 146.51090 | 2493 ft | 186 kts | 267° |
| 2026-05-06 00:55 | -19.40304 | 146.49782 | 2546 ft | 180 kts | 285° |
| 2026-05-06 00:55 | -19.40034 | 146.48445 | 2301 ft | 191 kts | 281° |
| 2026-05-06 00:56 | -19.39676 | 146.47089 | 1808 ft | 183 kts | 291° |
| 2026-05-06 00:56 | -19.39715 | 146.45841 | 1969 ft | 179 kts | 262° |
| 2026-05-06 00:56 | -19.39955 | 146.44478 | 1543 ft | 184 kts | 259° |
| 2026-05-06 00:56 | -19.40353 | 146.43278 | 1727 ft | 174 kts | 246° |
| 2026-05-06 00:57 | -19.41033 | 146.42163 | 1502 ft | 188 kts | 233° |
| 2026-05-06 00:57 | -19.42056 | 146.41664 | 1471 ft | 160 kts | 173° |
| 2026-05-06 00:57 | -19.43116 | 146.41932 | 1915 ft | 156 kts | 166° |
| 2026-05-06 00:57 | -19.44196 | 146.42224 | 2044 ft | 167 kts | 166° |
| 2026-05-06 00:58 | -19.45346 | 146.42031 | 1853 ft | 181 kts | 219° |
| 2026-05-06 00:58 | -19.45412 | 146.40800 | 1501 ft | 167 kts | 301° |
| 2026-05-06 00:58 | -19.44632 | 146.40667 | 1403 ft | 97 kts | 37° |
| 2026-05-06 00:58 | -19.44422 | 146.41209 | 1411 ft | 77 kts | 93° |
| 2026-05-06 00:59 | -19.44548 | 146.41666 | 1214 ft | 44 kts | 94° |
| 2026-05-06 00:59 | -19.44590 | 146.41838 | 1142 ft | 7 kts | 104° |
| 2026-05-06 00:59 | -19.44603 | 146.41886 | 1152 ft | 9 kts | 91° |
| 2026-05-06 00:59 | -19.44617 | 146.41971 | 1161 ft | 16 kts | 99° |
| 2026-05-06 01:00 | -19.44653 | 146.42134 | 1169 ft | 28 kts | 99° |
| 2026-05-06 01:00 | -19.44687 | 146.42271 | 1165 ft | 5 kts | 96° |
| 2026-05-06 01:00 | -19.44687 | 146.42290 | 1157 ft | 0 kts | 95° |
| 2026-05-06 01:02 | -19.44688 | 146.42241 | 1183 ft | 17 kts | 97° |
| 2026-05-06 01:03 | -19.44643 | 146.42168 | 1268 ft | 6 kts | 107° |
| 2026-05-06 01:03 | -19.44914 | 146.42352 | 1343 ft | 90 kts | 157° |
| 2026-05-06 01:03 | -19.45682 | 146.42446 | 1434 ft | 132 kts | 191° |
| 2026-05-06 01:03 | -19.46490 | 146.41835 | 1357 ft | 151 kts | 231° |
| 2026-05-06 01:04 | -19.47059 | 146.40905 | 1583 ft | 159 kts | 241° |
| 2026-05-06 01:04 | -19.47633 | 146.39838 | 1436 ft | 169 kts | 243° |
| 2026-05-06 01:04 | -19.48346 | 146.38895 | 1551 ft | 164 kts | 227° |
| 2026-05-06 01:04 | -19.49257 | 146.38107 | 1443 ft | 175 kts | 222° |
| 2026-05-06 01:05 | -19.50174 | 146.37251 | 1352 ft | 174 kts | 226° |
| 2026-05-06 01:05 | -19.51082 | 146.36517 | 1399 ft | 160 kts | 206° |
| 2026-05-06 01:05 | -19.52133 | 146.36083 | 1442 ft | 165 kts | 202° |
| 2026-05-06 01:05 | -19.53223 | 146.35648 | 1345 ft | 167 kts | 202° |
| 2026-05-06 01:06 | -19.54297 | 146.35222 | 1313 ft | 167 kts | 204° |
| 2026-05-06 01:06 | -19.55368 | 146.34841 | 1470 ft | 156 kts | 198° |
| 2026-05-06 01:06 | -19.56130 | 146.34132 | 1328 ft | 149 kts | 267° |
| 2026-05-06 01:06 | -19.55607 | 146.33353 | 1538 ft | 131 kts | 340° |
| 2026-05-06 01:07 | -19.54746 | 146.33221 | 1541 ft | 117 kts | 11° |
| 2026-05-06 01:07 | -19.54014 | 146.33384 | 1315 ft | 101 kts | 32° |
| 2026-05-06 01:07 | -19.53427 | 146.33697 | 1171 ft | 85 kts | 33° |
| 2026-05-06 01:07 | -19.53017 | 146.33898 | 1096 ft | 46 kts | 35° |
| 2026-05-06 01:08 | -19.52804 | 146.34010 | 1074 ft | 27 kts | 12° |
| 2026-05-06 01:08 | -19.52674 | 146.34077 | 1076 ft | 13 kts | 357° |
| 2026-05-06 01:08 | -19.52561 | 146.34117 | 1084 ft | 19 kts | 341° |
| 2026-05-06 01:08 | -19.52526 | 146.34116 | 1072 ft | 0 kts | 327° |
| 2026-05-06 01:12 | -19.52519 | 146.34109 | 1073 ft | 3 kts | 298° |
| 2026-05-06 01:12 | -19.52534 | 146.34088 | 1068 ft | 6 kts | 173° |
| 2026-05-06 01:13 | -19.52596 | 146.34095 | 1070 ft | 12 kts | 184° |
| 2026-05-06 01:13 | -19.52700 | 146.34063 | 1091 ft | 21 kts | 197° |
| 2026-05-06 01:13 | -19.52937 | 146.33954 | 1162 ft | 58 kts | 208° |
| 2026-05-06 01:13 | -19.53417 | 146.33895 | 1402 ft | 88 kts | 176° |
| 2026-05-06 01:14 | -19.53880 | 146.35458 | 1336 ft | 139 kts | 86° |
| 2026-05-06 01:14 | -19.53925 | 146.36384 | 1704 ft | 106 kts | 89° |
| 2026-05-06 01:14 | -19.54091 | 146.37206 | 1963 ft | 132 kts | 97° |
| 2026-05-06 01:15 | -19.54291 | 146.38186 | 1816 ft | 129 kts | 95° |
| 2026-05-06 01:15 | -19.54272 | 146.39165 | 1895 ft | 139 kts | 83° |
| 2026-05-06 01:15 | -19.54300 | 146.40200 | 1784 ft | 142 kts | 92° |
| 2026-05-06 01:15 | -19.54454 | 146.41224 | 1770 ft | 137 kts | 96° |
| 2026-05-06 01:16 | -19.54638 | 146.42185 | 1825 ft | 134 kts | 95° |
| 2026-05-06 01:16 | -19.54627 | 146.43176 | 1861 ft | 136 kts | 82° |
| 2026-05-06 01:16 | -19.54534 | 146.44194 | 1884 ft | 140 kts | 81° |
| 2026-05-06 01:16 | -19.54444 | 146.45224 | 1930 ft | 140 kts | 83° |
| 2026-05-06 01:17 | -19.54478 | 146.46269 | 1947 ft | 145 kts | 92° |
| 2026-05-06 01:17 | -19.54597 | 146.47337 | 2068 ft | 146 kts | 94° |
| 2026-05-06 01:17 | -19.54752 | 146.48395 | 2184 ft | 138 kts | 94° |
| 2026-05-06 01:17 | -19.54744 | 146.49363 | 2469 ft | 131 kts | 76° |
| 2026-05-06 01:18 | -19.54230 | 146.50228 | 2461 ft | 150 kts | 53° |
| 2026-05-06 01:18 | -19.53657 | 146.51197 | 2235 ft | 157 kts | 56° |
| 2026-05-06 01:18 | -19.53098 | 146.52159 | 2172 ft | 148 kts | 56° |
| 2026-05-06 01:18 | -19.52576 | 146.53053 | 2246 ft | 139 kts | 57° |
| 2026-05-06 01:19 | -19.52108 | 146.53940 | 2313 ft | 136 kts | 59° |
| 2026-05-06 01:19 | -19.51666 | 146.54840 | 2285 ft | 142 kts | 59° |
| 2026-05-06 01:19 | -19.51187 | 146.55766 | 2200 ft | 141 kts | 59° |
| 2026-05-06 01:19 | -19.50760 | 146.56623 | 2354 ft | 128 kts | 62° |
| 2026-05-06 01:20 | -19.50354 | 146.57502 | 2377 ft | 138 kts | 64° |
| 2026-05-06 01:20 | -19.49884 | 146.58473 | 2020 ft | 163 kts | 61° |
| 2026-05-06 01:20 | -19.49305 | 146.59599 | 1224 ft | 171 kts | 60° |
| 2026-05-06 01:20 | -19.48864 | 146.60618 | 1465 ft | 147 kts | 64° |
| 2026-05-06 01:21 | -19.48436 | 146.61661 | 1176 ft | 160 kts | 61° |
| 2026-05-06 01:21 | -19.47895 | 146.62701 | 947 ft | 160 kts | 59° |
| 2026-05-06 01:21 | -19.47410 | 146.63706 | 980 ft | 148 kts | 61° |
| 2026-05-06 01:21 | -19.46980 | 146.64687 | 1023 ft | 146 kts | 62° |
| 2026-05-06 01:22 | -19.46433 | 146.65584 | 1041 ft | 147 kts | 52° |
| 2026-05-06 01:22 | -19.45701 | 146.66356 | 1052 ft | 150 kts | 42° |
| 2026-05-06 01:22 | -19.44930 | 146.67049 | 1460 ft | 139 kts | 39° |
| 2026-05-06 01:22 | -19.44153 | 146.67788 | 1535 ft | 165 kts | 43° |
| 2026-05-06 01:23 | -19.43232 | 146.68555 | 1380 ft | 166 kts | 36° |
| 2026-05-06 01:23 | -19.42237 | 146.69143 | 1506 ft | 163 kts | 25° |
| 2026-05-06 01:23 | -19.41180 | 146.69588 | 1544 ft | 166 kts | 19° |
| 2026-05-06 01:23 | -19.40049 | 146.69858 | 1525 ft | 169 kts | 9° |
| 2026-05-06 01:24 | -19.38923 | 146.70164 | 1537 ft | 167 kts | 18° |
| 2026-05-06 01:24 | -19.37862 | 146.70690 | 1505 ft | 167 kts | 26° |
| 2026-05-06 01:24 | -19.36836 | 146.71270 | 1525 ft | 167 kts | 28° |
| 2026-05-06 01:24 | -19.35806 | 146.71853 | 1510 ft | 168 kts | 28° |
| 2026-05-06 01:25 | -19.34753 | 146.72379 | 1577 ft | 171 kts | 24° |
| 2026-05-06 01:25 | -19.33616 | 146.72888 | 1416 ft | 182 kts | 22° |
| 2026-05-06 01:25 | -19.32406 | 146.73355 | 1116 ft | 185 kts | 19° |
| 2026-05-06 01:25 | -19.31229 | 146.73834 | 907 ft | 179 kts | 25° |
| 2026-05-06 01:26 | -19.30167 | 146.74455 | 1068 ft | 172 kts | 28° |
| 2026-05-06 01:26 | -19.29100 | 146.75000 | 1055 ft | 168 kts | 24° |
| 2026-05-06 01:26 | -19.28028 | 146.75465 | 680 ft | 159 kts | 23° |
| 2026-05-06 01:26 | -19.27111 | 146.75884 | 660 ft | 132 kts | 21° |
| 2026-05-06 01:27 | -19.26338 | 146.76285 | 434 ft | 110 kts | 22° |
| 2026-05-06 01:27 | -19.25781 | 146.76546 | 245 ft | 54 kts | 2° |
| 2026-05-06 01:27 | -19.25532 | 146.76655 | 98 ft | 35 kts | 330° |
| 2026-05-06 01:27 | -19.25353 | 146.76678 | 27 ft | 16 kts | 358° |
| 2026-05-06 01:28 | -19.25275 | 146.76653 | 27 ft | 18 kts | 266° |
| 2026-05-06 01:28 | -19.25318 | 146.76474 | 29 ft | 30 kts | 249° |
| 2026-05-06 01:28 | -19.25374 | 146.76316 | 27 ft | 16 kts | 266° |
| 2026-05-06 01:28 | -19.25444 | 146.76205 | 33 ft | 7 kts | 241° |
| 2026-05-06 01:29 | -19.25462 | 146.76114 | 29 ft | 22 kts | 262° |
| 2026-05-06 01:29 | -19.25498 | 146.75938 | 37 ft | 21 kts | 206° |
| 2026-05-06 01:29 | -19.25555 | 146.75892 | 33 ft | 8 kts | 177° |
| 2026-05-06 01:29 | -19.25609 | 146.75914 | 28 ft | 6 kts | 180° |
| 2026-05-06 01:30 | -19.25628 | 146.75917 | 24 ft | 1 kts | 179° |
| 2026-05-06 01:30 | -19.25668 | 146.75925 | 16 ft | 12 kts | 181° |
| 2026-05-06 01:30 | -19.25761 | 146.75924 | 15 ft | 12 kts | 185° |
| 2026-05-06 01:30 | -19.25806 | 146.75925 | 15 ft | 3 kts | 99° |
| 2026-05-06 01:31 | -19.25808 | 146.75951 | 15 ft | 5 kts | 98° |
| 2026-05-06 01:31 | -19.25809 | 146.75962 | 15 ft | 0 kts | 98° |